createdAt,value
2023-03-30T00:00:18.368Z,18.10
2023-03-30T00:02:49.391Z,18.10
2023-03-30T00:05:19.768Z,18.10
2023-03-30T00:07:51.706Z,18.10
2023-03-30T00:10:27.837Z,18.10
2023-03-30T00:13:02.170Z,18.00
2023-03-30T00:15:32.842Z,18.00
2023-03-30T00:18:04.059Z,18.00
2023-03-30T00:20:36.163Z,18.00
2023-03-30T00:23:05.827Z,18.10
2023-03-30T00:25:35.051Z,18.00
2023-03-30T00:28:06.900Z,18.10
2023-03-30T00:30:35.075Z,18.00
2023-03-30T00:33:07.142Z,18.00
2023-03-30T00:35:36.391Z,18.00
2023-03-30T00:38:07.228Z,18.00
2023-03-30T00:40:38.485Z,17.90
2023-03-30T00:43:35.503Z,17.90
2023-03-30T00:46:04.697Z,18.00
2023-03-30T00:48:37.157Z,18.00
2023-03-30T00:51:10.533Z,18.00
2023-03-30T00:53:45.710Z,18.00
2023-03-30T00:56:17.172Z,18.00
2023-03-30T00:58:53.882Z,17.90
2023-03-30T01:01:28.042Z,17.70
2023-03-30T01:04:02.169Z,17.50
2023-03-30T01:06:36.426Z,17.40
2023-03-30T01:09:07.526Z,17.20
2023-03-30T01:11:37.723Z,16.80
2023-03-30T01:14:18.686Z,16.60
2023-03-30T01:16:55.946Z,16.40
2023-03-30T01:20:09.283Z,16.30
2023-03-30T01:23:13.589Z,16.20
2023-03-30T01:26:31.724Z,15.60
2023-03-30T01:29:08.647Z,15.20
2023-03-30T01:32:14.368Z,15.00
2023-03-30T01:35:20.506Z,15.00
2023-03-30T01:38:39.205Z,14.90
2023-03-30T01:41:20.192Z,14.80
2023-03-30T01:43:56.006Z,14.70
2023-03-30T01:46:32.858Z,14.70
2023-03-30T01:49:15.429Z,14.60
2023-03-30T01:51:51.996Z,14.40
2023-03-30T01:54:25.858Z,14.40
2023-03-30T01:57:06.184Z,14.40
2023-03-30T01:59:45.025Z,14.30
2023-03-30T02:02:17.362Z,14.30
2023-03-30T02:04:48.591Z,14.30
2023-03-30T02:07:25.018Z,14.30
2023-03-30T02:10:01.450Z,14.30
2023-03-30T02:12:34.191Z,14.30
2023-03-30T02:15:08.108Z,14.20
2023-03-30T02:17:40.568Z,14.00
2023-03-30T02:20:12.375Z,14.10
2023-03-30T02:22:43.126Z,14.00
2023-03-30T02:25:14.526Z,14.10
2023-03-30T02:27:48.818Z,13.90
2023-03-30T02:30:22.058Z,13.90
2023-03-30T02:32:56.868Z,13.80
2023-03-30T02:35:49.705Z,13.80
2023-03-30T02:38:46.792Z,13.80
2023-03-30T02:41:39.455Z,13.60
2023-03-30T02:44:24.042Z,13.60
2023-03-30T02:47:06.306Z,13.50
2023-03-30T02:49:49.048Z,13.50
2023-03-30T02:52:34.359Z,13.50
2023-03-30T02:55:15.172Z,13.50
2023-03-30T02:57:56.064Z,13.50
2023-03-30T03:00:36.163Z,13.50
2023-03-30T03:03:15.117Z,13.50
2023-03-30T03:05:48.573Z,13.50
2023-03-30T03:08:22.464Z,13.60
2023-03-30T03:10:52.180Z,13.60
2023-03-30T03:13:24.438Z,13.60
2023-03-30T03:16:04.064Z,13.60
2023-03-30T03:18:37.424Z,13.60
2023-03-30T03:21:08.274Z,13.60
2023-03-30T03:23:39.431Z,13.70
2023-03-30T03:26:11.762Z,13.70
2023-03-30T03:28:40.161Z,13.70
2023-03-30T03:31:18.320Z,13.80
2023-03-30T03:33:50.471Z,13.80
2023-03-30T03:36:24.499Z,13.80
2023-03-30T03:38:53.482Z,13.80
2023-03-30T03:41:24.015Z,13.80
2023-03-30T03:44:07.083Z,13.80
2023-03-30T03:46:44.827Z,13.90
2023-03-30T03:49:19.089Z,14.10
2023-03-30T03:51:49.975Z,14.60
2023-03-30T03:54:21.726Z,15.00
2023-03-30T03:56:53.588Z,15.30
2023-03-30T03:59:22.401Z,15.40
2023-03-30T04:01:51.991Z,15.40
2023-03-30T04:04:20.160Z,15.40
2023-03-30T04:06:48.378Z,15.40
2023-03-30T04:09:19.846Z,15.30
2023-03-30T04:11:48.291Z,15.50
2023-03-30T04:14:20.095Z,15.30
2023-03-30T04:16:49.743Z,15.30
2023-03-30T04:19:27.998Z,15.30
2023-03-30T04:21:58.993Z,15.10
2023-03-30T04:24:29.878Z,15.00
2023-03-30T04:26:59.463Z,14.90
2023-03-30T04:29:31.546Z,14.90
2023-03-30T04:32:05.536Z,14.70
2023-03-30T04:34:40.085Z,14.60
2023-03-30T04:37:09.515Z,14.50
2023-03-30T04:39:41.520Z,14.50
2023-03-30T04:42:16.843Z,14.40
2023-03-30T04:44:52.340Z,14.40
2023-03-30T04:47:20.536Z,14.40
2023-03-30T04:49:51.835Z,14.80
2023-03-30T04:52:20.623Z,15.00
2023-03-30T04:54:50.272Z,15.40
2023-03-30T04:57:18.990Z,15.60
2023-03-30T04:59:50.875Z,15.80
2023-03-30T05:02:19.082Z,15.80
2023-03-30T05:04:48.864Z,16.00
2023-03-30T05:07:19.825Z,16.10
2023-03-30T05:09:52.618Z,16.20
2023-03-30T05:12:22.868Z,16.10
2023-03-30T05:14:52.804Z,16.20
2023-03-30T05:17:22.450Z,16.30
2023-03-30T05:19:50.756Z,16.30
2023-03-30T05:22:26.434Z,16.30
2023-03-30T05:24:54.815Z,16.30
2023-03-30T05:27:26.224Z,16.30
2023-03-30T05:29:57.151Z,16.20
2023-03-30T05:32:27.737Z,15.90
2023-03-30T05:34:58.627Z,15.60
2023-03-30T05:37:38.303Z,15.30
2023-03-30T05:40:18.571Z,15.20
2023-03-30T05:42:48.392Z,15.30
2023-03-30T05:45:17.451Z,16.00
2023-03-30T05:47:49.533Z,16.00
2023-03-30T05:50:18.179Z,15.80
2023-03-30T05:52:50.374Z,15.60
2023-03-30T05:55:23.874Z,15.50
2023-03-30T06:00:39.823Z,15.30
2023-03-30T06:03:22.036Z,15.10
2023-03-30T06:05:57.102Z,15.00
2023-03-30T06:08:31.435Z,14.80
2023-03-30T06:11:11.555Z,14.80
2023-03-30T06:13:39.737Z,14.80
2023-03-30T06:16:10.218Z,14.90
2023-03-30T06:18:39.804Z,15.50
2023-03-30T06:21:18.428Z,15.80
2023-03-30T06:23:53.139Z,15.80
2023-03-30T06:26:21.339Z,15.90
2023-03-30T06:28:49.534Z,16.10
2023-03-30T06:34:01.110Z,16.60
2023-03-30T06:36:45.068Z,16.80
2023-03-30T06:39:16.471Z,16.80
2023-03-30T06:41:48.580Z,16.80
2023-03-30T06:44:22.147Z,16.90
2023-03-30T06:46:52.992Z,16.90
2023-03-30T06:49:22.364Z,16.90
2023-03-30T06:51:52.909Z,16.90
2023-03-30T06:54:30.295Z,16.90
2023-03-30T06:56:58.501Z,16.90
2023-03-30T06:59:27.366Z,17.00
2023-03-30T07:01:59.402Z,17.10
2023-03-30T07:04:29.172Z,17.00
2023-03-30T07:07:02.996Z,16.90
2023-03-30T07:09:46.343Z,17.00
2023-03-30T07:12:17.655Z,16.90
2023-03-30T07:14:48.309Z,16.80
2023-03-30T07:17:23.439Z,16.90
2023-03-30T07:20:08.691Z,16.90
2023-03-30T07:22:39.098Z,16.90
2023-03-30T07:25:10.994Z,16.90
2023-03-30T07:27:41.019Z,16.90
2023-03-30T07:30:21.267Z,16.80
2023-03-30T07:32:51.919Z,16.80
2023-03-30T07:35:25.162Z,16.80
2023-03-30T07:38:04.246Z,16.70
2023-03-30T07:40:34.390Z,16.60
2023-03-30T07:43:04.611Z,16.50
2023-03-30T07:45:34.049Z,16.30
2023-03-30T07:48:03.634Z,16.20
2023-03-30T07:50:33.826Z,15.90
2023-03-30T07:53:02.283Z,15.80
2023-03-30T07:55:32.833Z,15.80
2023-03-30T07:58:02.620Z,15.60
2023-03-30T08:00:33.259Z,15.50
2023-03-30T08:03:07.812Z,15.50
2023-03-30T08:05:40.113Z,15.40
2023-03-30T08:08:13.977Z,15.50
2023-03-30T08:10:44.444Z,15.60
2023-03-30T08:13:19.769Z,15.70
2023-03-30T08:15:57.005Z,15.80
2023-03-30T08:18:29.058Z,15.70
2023-03-30T08:20:58.780Z,15.60
2023-03-30T08:23:30.262Z,15.40
2023-03-30T08:26:05.077Z,15.20
2023-03-30T08:28:45.734Z,15.10
2023-03-30T08:31:18.221Z,15.00
2023-03-30T08:33:48.344Z,14.90
2023-03-30T08:36:25.247Z,14.80
2023-03-30T08:39:01.744Z,14.80
2023-03-30T08:42:00.652Z,14.50
2023-03-30T08:44:37.482Z,14.40
2023-03-30T08:47:12.860Z,14.30
2023-03-30T08:49:47.848Z,14.30
2023-03-30T08:52:23.728Z,14.20
2023-03-30T08:54:53.153Z,14.00
2023-03-30T08:57:34.919Z,13.90
2023-03-30T09:00:20.190Z,13.80
2023-03-30T09:02:51.257Z,13.80
2023-03-30T09:05:24.129Z,13.70
2023-03-30T09:08:02.384Z,13.80
2023-03-30T09:10:37.284Z,13.80
2023-03-30T09:13:07.298Z,13.90
2023-03-30T09:15:43.248Z,13.80
2023-03-30T09:18:20.566Z,13.80
2023-03-30T09:20:52.477Z,13.70
2023-03-30T09:23:21.618Z,13.60
2023-03-30T09:25:55.726Z,13.60
2023-03-30T09:28:28.761Z,13.70
2023-03-30T09:31:03.083Z,13.80
2023-03-30T09:33:43.285Z,14.00
2023-03-30T09:36:16.382Z,14.20
2023-03-30T09:38:45.355Z,14.30
2023-03-30T09:41:34.556Z,14.30
2023-03-30T09:44:04.306Z,14.30
2023-03-30T09:46:40.531Z,14.20
2023-03-30T09:49:16.686Z,14.10
2023-03-30T09:51:56.373Z,14.00
2023-03-30T09:54:24.942Z,14.00
2023-03-30T09:56:57.088Z,14.10
2023-03-30T09:59:31.895Z,14.00
2023-03-30T10:02:19.853Z,14.10
2023-03-30T10:05:06.667Z,14.10
2023-03-30T10:07:37.194Z,14.20
2023-03-30T10:10:17.253Z,14.30
2023-03-30T10:12:46.464Z,14.50
2023-03-30T10:15:18.896Z,14.50
2023-03-30T10:17:51.494Z,14.60
2023-03-30T10:20:29.840Z,14.70
2023-03-30T10:23:03.207Z,14.60
2023-03-30T10:25:34.285Z,14.80
2023-03-30T10:28:04.810Z,14.80
2023-03-30T10:30:34.761Z,14.70
2023-03-30T10:33:04.786Z,14.60
2023-03-30T10:35:37.283Z,14.60
2023-03-30T10:38:08.696Z,14.60
2023-03-30T10:40:42.045Z,14.60
2023-03-30T10:43:18.272Z,14.50
2023-03-30T10:45:49.185Z,14.50
2023-03-30T10:48:37.745Z,14.50
2023-03-30T10:51:17.494Z,14.50
2023-03-30T10:53:58.520Z,14.40
2023-03-30T10:56:33.684Z,14.40
2023-03-30T10:59:40.431Z,14.40
2023-03-30T11:02:23.514Z,14.40
2023-03-30T11:05:00.179Z,14.40
2023-03-30T11:07:31.244Z,14.30
2023-03-30T11:10:06.700Z,14.30
2023-03-30T11:12:40.660Z,14.40
2023-03-30T11:15:14.380Z,14.30
2023-03-30T11:17:52.224Z,14.20
2023-03-30T11:20:28.407Z,14.00
2023-03-30T11:23:04.803Z,14.10
2023-03-30T11:25:37.708Z,14.00
2023-03-30T11:28:16.630Z,13.90
2023-03-30T11:30:45.978Z,13.90
2023-03-30T11:33:22.679Z,13.90
2023-03-30T11:35:57.432Z,13.80
2023-03-30T11:38:30.418Z,13.80
2023-03-30T11:41:02.451Z,13.70
2023-03-30T11:43:32.836Z,13.60
2023-03-30T11:46:05.644Z,13.70
2023-03-30T11:48:48.625Z,13.80
2023-03-30T11:51:40.768Z,14.00
2023-03-30T11:54:32.721Z,14.00
2023-03-30T11:57:11.223Z,14.00
2023-03-30T11:59:50.910Z,14.10
2023-03-30T12:02:28.394Z,14.20
2023-03-30T12:05:02.181Z,14.30
2023-03-30T12:07:41.172Z,14.50
2023-03-30T12:10:18.436Z,14.90
2023-03-30T12:12:49.491Z,15.20
2023-03-30T12:15:40.453Z,15.40
2023-03-30T12:18:20.098Z,15.50
2023-03-30T12:20:54.482Z,15.60
2023-03-30T12:23:35.409Z,15.80
2023-03-30T12:26:18.394Z,15.70
2023-03-30T12:29:15.164Z,15.90
2023-03-30T12:32:08.243Z,16.00
2023-03-30T12:34:38.685Z,15.90
2023-03-30T12:37:13.378Z,15.80
2023-03-30T12:39:49.258Z,15.70
2023-03-30T12:42:27.480Z,15.60
2023-03-30T12:45:21.480Z,15.20
2023-03-30T12:48:03.267Z,15.30
2023-03-30T12:50:41.672Z,14.90
2023-03-30T12:53:46.264Z,15.00
2023-03-30T12:56:28.959Z,14.90
2023-03-30T12:59:27.116Z,15.10
2023-03-30T13:02:25.092Z,15.40
2023-03-30T13:04:53.439Z,15.80
2023-03-30T13:07:25.021Z,15.60
2023-03-30T13:09:56.848Z,15.50
2023-03-30T13:12:36.021Z,15.80
2023-03-30T13:15:20.726Z,16.00
2023-03-30T13:17:50.981Z,16.30
2023-03-30T13:20:29.717Z,16.90
2023-03-30T13:23:24.905Z,17.30
2023-03-30T13:26:03.264Z,17.30
2023-03-30T13:28:56.690Z,17.30
2023-03-30T13:31:44.819Z,17.60
2023-03-30T13:34:24.743Z,17.70
2023-03-30T13:37:01.777Z,17.80
2023-03-30T13:39:39.877Z,17.80
2023-03-30T13:42:28.990Z,17.80
2023-03-30T13:45:05.995Z,17.40
2023-03-30T13:47:49.887Z,17.30
2023-03-30T13:50:26.557Z,17.10
2023-03-30T13:52:58.612Z,16.90
2023-03-30T13:55:33.296Z,16.80
2023-03-30T13:58:04.455Z,16.60
2023-03-30T14:00:45.188Z,16.50
2023-03-30T14:03:41.872Z,16.40
2023-03-30T14:06:17.865Z,16.10
2023-03-30T14:08:48.392Z,16.20
2023-03-30T14:11:19.915Z,16.20
2023-03-30T14:13:52.226Z,16.30
2023-03-30T14:16:25.071Z,16.30
2023-03-30T14:18:54.094Z,16.40
2023-03-30T14:21:24.568Z,16.40
2023-03-30T14:23:54.564Z,16.60
2023-03-30T14:26:25.258Z,16.80
2023-03-30T14:28:56.769Z,16.70
2023-03-30T14:31:27.792Z,16.70
2023-03-30T14:33:56.225Z,16.50
2023-03-30T14:36:24.494Z,16.30
2023-03-30T14:38:54.733Z,16.20
2023-03-30T14:41:24.772Z,16.00
2023-03-30T14:43:56.304Z,15.50
2023-03-30T14:46:29.565Z,15.00
2023-03-30T14:48:58.698Z,14.80
2023-03-30T14:51:35.156Z,14.50
2023-03-30T14:54:04.387Z,14.20
2023-03-30T14:56:32.866Z,14.00
2023-03-30T14:59:01.190Z,13.90
2023-03-30T15:01:32.306Z,13.50
2023-03-30T15:04:04.222Z,13.30
2023-03-30T15:06:33.384Z,13.30
2023-03-30T15:09:03.282Z,13.30
2023-03-30T15:11:33.694Z,13.60
2023-03-30T15:14:05.543Z,13.80
2023-03-30T15:16:36.362Z,13.80
2023-03-30T15:19:07.228Z,13.80
2023-03-30T15:21:37.655Z,13.80
2023-03-30T15:24:08.248Z,13.80
2023-03-30T15:26:38.111Z,13.90
2023-03-30T15:29:06.382Z,14.30
2023-03-30T15:31:35.993Z,14.70
2023-03-30T15:34:05.392Z,14.60
2023-03-30T15:36:38.946Z,14.30
2023-03-30T15:39:21.465Z,14.10
2023-03-30T15:42:00.794Z,13.90
2023-03-30T15:44:29.886Z,13.90
2023-03-30T15:47:02.608Z,14.10
2023-03-30T15:49:37.067Z,14.10
2023-03-30T15:52:14.180Z,14.00
2023-03-30T15:54:46.219Z,13.80
2023-03-30T15:57:21.211Z,13.80
2023-03-30T15:59:53.359Z,13.60
2023-03-30T16:02:25.280Z,13.50
2023-03-30T16:04:54.398Z,13.60
2023-03-30T16:07:24.681Z,13.60
2023-03-30T16:09:53.765Z,13.60
2023-03-30T16:12:25.320Z,15.80
2023-03-30T16:14:54.104Z,15.30
2023-03-30T16:17:24.096Z,14.60
2023-03-30T16:19:52.243Z,14.20
2023-03-30T16:22:20.447Z,13.90
2023-03-30T16:24:48.618Z,13.70
2023-03-30T16:27:16.771Z,13.70
2023-03-30T16:29:44.874Z,13.70
2023-03-30T16:32:13.013Z,13.70
2023-03-30T16:34:43.136Z,13.60
2023-03-30T16:37:12.065Z,13.60
2023-03-30T16:39:40.796Z,13.70
2023-03-30T16:42:08.893Z,13.70
2023-03-30T16:44:37.380Z,13.50
2023-03-30T16:47:05.606Z,13.60
2023-03-30T16:49:33.708Z,13.60
2023-03-30T16:52:03.204Z,13.60
2023-03-30T16:54:32.916Z,13.60
2023-03-30T16:57:02.078Z,13.50
2023-03-30T16:59:31.907Z,13.50
2023-03-30T17:02:00.545Z,13.30
2023-03-30T17:04:28.846Z,13.20
2023-03-30T17:06:57.119Z,13.30
2023-03-30T17:09:27.198Z,13.20
2023-03-30T17:11:55.384Z,13.20
2023-03-30T17:14:24.374Z,13.20
2023-03-30T17:16:52.805Z,13.20
2023-03-30T17:19:21.035Z,13.10
2023-03-30T17:21:49.275Z,13.10
2023-03-30T17:24:17.476Z,13.30
2023-03-30T17:26:47.131Z,13.40
2023-03-30T17:29:15.218Z,13.40
2023-03-30T17:31:45.823Z,13.30
2023-03-30T17:34:14.851Z,13.20
2023-03-30T17:36:43.466Z,13.10
2023-03-30T17:39:13.988Z,12.90
2023-03-30T17:41:42.321Z,13.20
2023-03-30T17:44:11.882Z,13.40
2023-03-30T17:46:43.603Z,13.50
2023-03-30T17:49:17.244Z,13.40
2023-03-30T17:51:45.571Z,13.10
2023-03-30T17:54:15.704Z,12.90
2023-03-30T17:56:43.885Z,12.70
2023-03-30T17:59:13.798Z,12.60
2023-03-30T18:01:42.099Z,12.50
2023-03-30T18:04:13.306Z,12.50
2023-03-30T18:06:43.097Z,12.40
2023-03-30T18:09:16.310Z,12.50
2023-03-30T18:11:44.439Z,12.70
2023-03-30T18:14:13.985Z,12.80
2023-03-30T18:16:45.922Z,13.00
2023-03-30T18:19:14.346Z,13.00
2023-03-30T18:21:42.638Z,13.30
2023-03-30T18:24:10.942Z,13.30
2023-03-30T18:26:40.965Z,13.30
2023-03-30T18:29:20.192Z,13.40
2023-03-30T18:31:48.836Z,13.30
2023-03-30T18:34:20.341Z,13.20
2023-03-30T18:36:48.475Z,13.10
2023-03-30T18:39:19.783Z,13.10
2023-03-30T18:41:48.206Z,13.10
2023-03-30T18:44:17.766Z,13.00
2023-03-30T18:46:48.416Z,13.10
2023-03-30T18:49:20.783Z,13.30
2023-03-30T18:51:48.916Z,13.30
2023-03-30T18:54:17.081Z,13.30
2023-03-30T18:56:46.114Z,13.30
2023-03-30T18:59:14.378Z,13.40
2023-03-30T19:01:46.082Z,13.30
2023-03-30T19:04:14.392Z,13.30
2023-03-30T19:06:44.505Z,13.40
2023-03-30T19:09:12.840Z,13.50
2023-03-30T19:11:41.035Z,13.70
2023-03-30T19:14:10.568Z,13.80
2023-03-30T19:16:38.671Z,13.80
2023-03-30T19:19:14.820Z,13.80
2023-03-30T19:21:46.135Z,13.60
2023-03-30T19:24:14.496Z,13.70
2023-03-30T19:26:42.600Z,13.80
2023-03-30T19:29:11.009Z,14.00
2023-03-30T19:31:39.208Z,13.90
2023-03-30T19:34:08.820Z,14.00
2023-03-30T19:36:39.810Z,14.00
2023-03-30T19:39:07.991Z,13.80
2023-03-30T19:41:36.301Z,13.80
2023-03-30T19:44:04.490Z,13.60
2023-03-30T19:46:32.792Z,13.50
2023-03-30T19:49:01.320Z,13.50
2023-03-30T19:51:30.851Z,13.40
2023-03-30T19:53:58.949Z,13.30
2023-03-30T19:56:27.116Z,13.10
2023-03-30T19:58:55.240Z,12.90
2023-03-30T20:01:23.407Z,12.80
2023-03-30T20:03:51.726Z,12.70
2023-03-30T20:06:20.001Z,12.60
2023-03-30T20:08:49.695Z,12.50
2023-03-30T20:11:17.837Z,12.30
2023-03-30T20:13:47.395Z,12.20
2023-03-30T20:16:20.428Z,12.00
2023-03-30T20:18:50.723Z,11.90
2023-03-30T20:21:19.206Z,11.80
2023-03-30T20:23:49.397Z,11.80
2023-03-30T20:26:19.417Z,11.80
2023-03-30T20:28:47.853Z,11.80
2023-03-30T20:31:16.665Z,11.80
2023-03-30T20:33:44.920Z,11.80
2023-03-30T20:36:13.539Z,11.80
2023-03-30T20:38:41.823Z,11.80
2023-03-30T20:41:11.616Z,11.60
2023-03-30T20:43:55.749Z,11.70
2023-03-30T20:46:25.996Z,11.60
2023-03-30T20:48:55.021Z,11.50
2023-03-30T20:51:24.522Z,11.50
2023-03-30T20:53:52.710Z,11.50
2023-03-30T20:56:22.225Z,11.50
2023-03-30T20:58:50.540Z,11.50
2023-03-30T21:01:25.278Z,11.40
2023-03-30T21:03:57.597Z,11.40
2023-03-30T21:06:27.297Z,11.40
2023-03-30T21:08:57.318Z,11.40
2023-03-30T21:11:28.100Z,11.30
2023-03-30T21:13:56.727Z,11.30
2023-03-30T21:16:25.773Z,11.30
2023-03-30T21:18:54.104Z,11.30
2023-03-30T21:21:22.271Z,11.30
2023-03-30T21:23:50.612Z,11.30
2023-03-30T21:26:19.309Z,11.30
2023-03-30T21:28:49.362Z,11.30
2023-03-30T21:31:17.601Z,11.30
2023-03-30T21:33:45.977Z,11.20
2023-03-30T21:36:14.399Z,11.10
2023-03-30T21:38:42.761Z,11.20
2023-03-30T21:41:13.601Z,11.30
2023-03-30T21:43:44.244Z,11.40
2023-03-30T21:46:15.309Z,11.50
2023-03-30T21:48:45.456Z,11.80
2023-03-30T21:51:16.003Z,12.10
2023-03-30T21:53:46.004Z,12.20
2023-03-30T21:56:14.181Z,12.40
2023-03-30T21:58:42.636Z,12.60
2023-03-30T22:01:13.218Z,12.80
2023-03-30T22:03:42.110Z,13.10
2023-03-30T22:06:13.232Z,13.40
2023-03-30T22:08:42.040Z,13.50
2023-03-30T22:11:14.439Z,13.50
2023-03-30T22:13:42.851Z,13.50
2023-03-30T22:16:15.156Z,13.60
2023-03-30T22:18:43.902Z,13.70
2023-03-30T22:21:14.618Z,13.80
2023-03-30T22:23:42.760Z,13.90
2023-03-30T22:26:11.552Z,13.90
2023-03-30T22:28:39.769Z,13.90
2023-03-30T22:31:08.444Z,13.90
2023-03-30T22:33:38.137Z,14.00
2023-03-30T22:36:07.948Z,14.10
2023-03-30T22:38:36.368Z,14.10
2023-03-30T22:41:07.918Z,14.20
2023-03-30T22:43:36.916Z,14.20
2023-03-30T22:46:06.091Z,14.10
2023-03-30T22:48:35.645Z,14.10
2023-03-30T22:51:08.380Z,14.20
2023-03-30T22:53:38.566Z,14.20
2023-03-30T22:56:07.741Z,14.20
2023-03-30T22:58:37.267Z,14.20
2023-03-30T23:01:10.275Z,14.30
2023-03-30T23:03:38.852Z,14.30
2023-03-30T23:06:09.365Z,14.30
2023-03-30T23:08:39.207Z,14.30
2023-03-30T23:11:08.342Z,14.40
2023-03-30T23:13:38.206Z,14.40
2023-03-30T23:16:08.438Z,14.40
2023-03-30T23:18:36.789Z,14.30
2023-03-30T23:21:07.061Z,14.30
2023-03-30T23:23:38.000Z,14.30
2023-03-30T23:26:08.917Z,14.40
2023-03-30T23:28:39.354Z,14.40
2023-03-30T23:31:08.661Z,14.30
2023-03-30T23:33:36.852Z,14.40
2023-03-30T23:36:06.307Z,14.40
2023-03-30T23:38:36.081Z,14.40
2023-03-30T23:41:04.311Z,14.40
2023-03-30T23:43:32.499Z,14.50
2023-03-30T23:46:00.642Z,14.50
2023-03-30T23:48:28.829Z,14.50
2023-03-30T23:50:57.873Z,14.40
2023-03-30T23:53:26.669Z,14.50
2023-03-30T23:55:56.664Z,14.40
2023-03-30T23:58:24.811Z,14.40
